^^
Datos históricos de la estación: Murcia-Puente Tocinos
Diario Informe para Marzo 14, 2021 Unidades:  Métrico    Ingés   Ambas
Diario Semanal Mensual Anual
  Máxima: Mínima: Promedio:
Temperatura: 18.9 °C 4.1 °C 10 °C
Punto de rocio: 3.3 °C -3.9 °C -0.1 °C
Humedad: 76% 21% 53%
Velocidad viento: 16.1km/h 0km/h 7.2km/h
Racha viento: 35.9km/h - -
Viento- - SSO
Presión: 1026.8 hPa 1020.3 hPa -
Precipitación: 0.0 mm    
 
 
Tabla de datos para Marzo 14, 2021
Hora Temperatura Punto de rocio Presión Viento Velocidad viento Racha viento Humedad Intensidad lluvia(por hora) Nubes
00:04 6.2 °C 1.9 °C 1026.8 hPa Sur 5 km/h 11.1 km/h 74.2% 0.0 mm
00:09 6.2 °C 1.9 °C 1026.8 hPa SSE 6.8 km/h 11.3 km/h 74% 0.0 mm
00:14 6.1 °C 2 °C 1026.7 hPa SSE 6.9 km/h 9.7 km/h 75% 0.0 mm
00:19 6.1 °C 2 °C 1026.7 hPa SSE 6.5 km/h 8 km/h 75% 0.0 mm
00:24 6 °C 1.9 °C 1026.7 hPa SSE 6.5 km/h 9.3 km/h 75% 0.0 mm
00:29 5.9 °C 1.9 °C 1026.5 hPa SSE 5.9 km/h 9.7 km/h 75.3% 0.0 mm
00:34 5.9 °C 2 °C 1026.5 hPa Sur 5.8 km/h 8 km/h 76% 0.0 mm
00:39 5.9 °C 2 °C 1026.5 hPa Sur 5.8 km/h 8.4 km/h 76% 0.0 mm
00:44 5.8 °C 1.9 °C 1026.3 hPa Sur 5.8 km/h 8.4 km/h 76% 0.0 mm
00:49 5.8 °C 1.9 °C 1026.3 hPa Sur 5.8 km/h 9.3 km/h 76% 0.0 mm
00:54 5.8 °C 1.9 °C 1026.3 hPa Sur 5.8 km/h 9.7 km/h 76% 0.0 mm
00:59 5.8 °C 1.9 °C 1026.2 hPa Sur 5.1 km/h 8 km/h 76% 0.0 mm
01:04 5.8 °C 1.9 °C 1026.2 hPa Sur 5 km/h 8 km/h 76% 0.0 mm
01:09 5.7 °C 1.7 °C 1026.2 hPa SSE 4.7 km/h 8 km/h 75.2% 0.0 mm
01:14 5.7 °C 1.6 °C 1026.0 hPa SSE 4.7 km/h 8.4 km/h 75% 0.0 mm
01:19 5.6 °C 1.5 °C 1026.0 hPa Sur 5.6 km/h 8 km/h 75% 0.0 mm
01:24 5.6 °C 1.5 °C 1026.0 hPa SSO 5.8 km/h 9.3 km/h 75% 0.0 mm
01:29 5.6 °C 1.3 °C 1025.8 hPa SSO 5.1 km/h 9.7 km/h 74% 0.0 mm
01:34 5.7 °C 1.4 °C 1025.8 hPa SSO 5 km/h 8.4 km/h 73.6% 0.0 mm
01:39 5.7 °C 1.2 °C 1025.8 hPa Sur 5 km/h 8 km/h 73% 0.0 mm
01:44 5.7 °C 1.1 °C 1025.7 hPa Sur 5 km/h 8.4 km/h 72.1% 0.0 mm
01:49 5.8 °C 1.1 °C 1025.7 hPa Sur 4.7 km/h 9.3 km/h 72% 0.0 mm
01:54 5.8 °C 1 °C 1025.7 hPa SSO 4.7 km/h 9.7 km/h 71.1% 0.0 mm
01:59 5.9 °C 1.1 °C 1025.6 hPa SSO 4.7 km/h 8 km/h 71% 0.0 mm
02:04 5.9 °C 0.8 °C 1025.6 hPa SO 4.7 km/h 8 km/h 70% 0.0 mm
02:09 5.8 °C 0.7 °C 1025.6 hPa OSO 3.9 km/h 8 km/h 70% 0.0 mm
02:14 5.7 °C 0.5 °C 1025.4 hPa SO 3.9 km/h 7.4 km/h 69.5% 0.0 mm
02:19 5.5 °C 0.3 °C 1025.4 hPa SO 3.9 km/h 8 km/h 69% 0.0 mm
02:24 5.5 °C 0.4 °C 1025.4 hPa SSO 3.9 km/h 9.3 km/h 69.6% 0.0 mm
02:29 5.5 °C 0.5 °C 1025.2 hPa SSO 4.6 km/h 9.7 km/h 70% 0.0 mm
02:34 5.6 °C 0.5 °C 1025.2 hPa Sur 4.7 km/h 8.4 km/h 70% 0.0 mm
02:39 5.6 °C 0.4 °C 1025.2 hPa Sur 4.7 km/h 10 km/h 69.4% 0.0 mm
02:44 5.6 °C 0.3 °C 1025.2 hPa Sur 4.7 km/h 9.7 km/h 68.7% 0.0 mm
02:49 5.6 °C 0.2 °C 1025.2 hPa SSO 5.7 km/h 9.7 km/h 68% 0.0 mm
02:54 5.6 °C 0.2 °C 1025.2 hPa SSO 5.8 km/h 8 km/h 68% 0.0 mm
02:59 5.7 °C 0.1 °C 1025.1 hPa SSO 4.8 km/h 8.4 km/h 67.4% 0.0 mm
03:04 5.7 °C 0.1 °C 1025.1 hPa SO 4.7 km/h 8 km/h 67% 0.0 mm
03:09 5.7 °C -0.2 °C 1025.1 hPa OSO 4.9 km/h 8 km/h 66% 0.0 mm
03:14 5.6 °C -0.3 °C 1024.9 hPa OSO 5 km/h 8 km/h 66% 0.0 mm
03:19 5.4 °C -0.2 °C 1024.9 hPa OSO 3.5 km/h 6.4 km/h 66.8% 0.0 mm
03:24 5.4 °C -0.1 °C 1024.9 hPa Oeste 3.2 km/h 5.8 km/h 67.6% 0.0 mm
03:29 5.2 °C -0.2 °C 1024.9 hPa ONO 2.9 km/h 6.4 km/h 68% 0.0 mm
03:34 5.1 °C -0.3 °C 1024.9 hPa ONO 2.9 km/h 5.6 km/h 68.3% 0.0 mm
03:39 4.9 °C -0.3 °C 1024.9 hPa Oeste 2.9 km/h 6.4 km/h 69% 0.0 mm
03:44 4.9 °C -0.2 °C 1024.9 hPa SSO 2.9 km/h 8 km/h 69.7% 0.0 mm
03:49 4.9 °C -0.3 °C 1024.9 hPa SSO 3.8 km/h 11.1 km/h 69% 0.0 mm
03:54 5.1 °C -0.3 °C 1024.9 hPa SO 3.9 km/h 11.3 km/h 68.4% 0.0 mm
03:59 5.2 °C -0.3 °C 1024.8 hPa SSO 4.5 km/h 11.1 km/h 68% 0.0 mm
04:04 5.2 °C -0.4 °C 1024.8 hPa SSO 4.7 km/h 11.3 km/h 67.1% 0.0 mm
04:09 5.2 °C -0.4 °C 1024.8 hPa SSO 6.7 km/h 9.7 km/h 67% 0.0 mm
04:14 5.2 °C -0.3 °C 1024.7 hPa SSO 6.9 km/h 8 km/h 67.9% 0.0 mm
04:19 5.1 °C -0.3 °C 1024.7 hPa SSO 5.3 km/h 8 km/h 68% 0.0 mm
04:24 5.1 °C -0.2 °C 1024.7 hPa SSO 5 km/h 8 km/h 68.5% 0.0 mm
04:29 5 °C -0.2 °C 1024.6 hPa SSO 4 km/h 8 km/h 69% 0.0 mm
04:34 4.9 °C -0.3 °C 1024.6 hPa SSO 3.9 km/h 5.8 km/h 69% 0.0 mm
04:39 4.9 °C -0.2 °C 1024.7 hPa SSO 2.4 km/h 9.3 km/h 69.8% 0.0 mm
04:44 4.9 °C -0.1 °C 1024.7 hPa SO 2.2 km/h 11.1 km/h 70% 0.0 mm
04:49 4.9 °C -0.1 °C 1024.7 hPa SO 4.5 km/h 11.3 km/h 70% 0.0 mm
04:54 4.8 °C -0.2 °C 1024.7 hPa SO 5 km/h 8 km/h 70% 0.0 mm
04:59 4.8 °C -0.2 °C 1024.5 hPa SO 4 km/h 8 km/h 70% 0.0 mm
05:04 4.7 °C -0.3 °C 1024.5 hPa SO 3.9 km/h 7.4 km/h 70% 0.0 mm
05:09 4.7 °C -0.3 °C 1024.5 hPa SSO 4.5 km/h 8.4 km/h 70% 0.0 mm
05:14 4.7 °C -0.3 °C 1024.4 hPa SSO 4.7 km/h 8 km/h 70% 0.0 mm
05:19 4.7 °C -0.3 °C 1024.4 hPa SSO 4.6 km/h 5.8 km/h 70% 0.0 mm
05:24 4.7 °C -0.3 °C 1024.4 hPa SSO 4.7 km/h 8.4 km/h 70% 0.0 mm
05:29 4.7 °C -0.3 °C 1024.2 hPa OSO 3.4 km/h 8 km/h 70% 0.0 mm
05:34 4.6 °C -0.4 °C 1024.2 hPa OSO 3.2 km/h 8.4 km/h 70% 0.0 mm
05:39 4.6 °C -0.4 °C 1024.2 hPa SO 4.8 km/h 11.1 km/h 70% 0.0 mm
05:44 4.5 °C -0.4 °C 1024.2 hPa SO 5 km/h 11.3 km/h 70.5% 0.0 mm
05:49 4.4 °C -0.4 °C 1024.2 hPa SO 6.2 km/h 11.3 km/h 71% 0.0 mm
05:54 4.5 °C -0.3 °C 1024.2 hPa SSO 6.5 km/h 9.7 km/h 71% 0.0 mm
05:59 4.6 °C -0.3 °C 1024.2 hPa SSO 5.9 km/h 9.7 km/h 70.8% 0.0 mm
06:04 4.7 °C -0.4 °C 1024.2 hPa Sur 5.8 km/h 9.5 km/h 70% 0.0 mm
06:09 4.7 °C -0.4 °C 1024.3 hPa SSO 5.8 km/h 9.7 km/h 69.5% 0.0 mm
06:14 4.8 °C -0.4 °C 1024.3 hPa SSO 5.8 km/h 9.7 km/h 69% 0.0 mm
06:19 4.8 °C -0.4 °C 1024.3 hPa SSO 5.1 km/h 8 km/h 69% 0.0 mm
06:24 4.8 °C -0.5 °C 1024.3 hPa SSO 5 km/h 8 km/h 68.2% 0.0 mm
06:29 4.9 °C -0.5 °C 1024.3 hPa SSO 5 km/h 8 km/h 68% 0.0 mm
06:34 4.9 °C -0.5 °C 1024.3 hPa Sur 5 km/h 9.5 km/h 68% 0.0 mm
06:39 4.9 °C -0.5 °C 1024.3 hPa SSO 5.7 km/h 11.1 km/h 68% 0.0 mm
06:44 4.9 °C -0.5 °C 1024.2 hPa SO 5.8 km/h 11.3 km/h 68% 0.0 mm
06:49 4.8 °C -0.7 °C 1024.2 hPa SO 6.7 km/h 13 km/h 67.4% 0.0 mm
06:54 4.8 °C -0.8 °C 1024.2 hPa SO 6.9 km/h 13 km/h 67% 0.0 mm
06:59 4.8 °C -0.8 °C 1024.2 hPa SSO 8.5 km/h 12.9 km/h 67% 0.0 mm
07:04 4.8 °C -0.8 °C 1024.2 hPa SSO 8.7 km/h 11.3 km/h 67% 0.0 mm
07:09 4.8 °C -0.8 °C 1024.2 hPa SO 7.7 km/h 11.3 km/h 67% 0.0 mm
07:14 4.8 °C -0.8 °C 1024.2 hPa SO 7.6 km/h 10.3 km/h 67% 0.0 mm
07:19 4.8 °C -0.8 °C 1024.2 hPa SO 7 km/h 11.3 km/h 67% 0.0 mm
07:24 4.7 °C -0.7 °C 1024.3 hPa SSO 6.9 km/h 11.3 km/h 67.9% 0.0 mm
07:29 4.7 °C -0.7 °C 1024.3 hPa SSO 6.5 km/h 11.1 km/h 67.8% 0.0 mm
07:34 4.8 °C -0.8 °C 1024.3 hPa SO 6.5 km/h 11.3 km/h 67% 0.0 mm
07:39 4.8 °C -0.8 °C 1024.3 hPa OSO 6.4 km/h 7.4 km/h 67% 0.0 mm
07:44 4.8 °C -0.8 °C 1024.3 hPa SO 6.5 km/h 8 km/h 67% 0.0 mm
07:49 4.8 °C -0.8 °C 1024.3 hPa SO 4.2 km/h 8.7 km/h 67% 0.0 mm
07:54 4.8 °C -0.8 °C 1024.3 hPa SO 3.9 km/h 9.7 km/h 67% 0.0 mm
07:59 4.8 °C -0.8 °C 1024.2 hPa SSO 5.5 km/h 9.7 km/h 67% 0.0 mm
08:04 4.8 °C -0.8 °C 1024.2 hPa SSO 5.8 km/h 9.7 km/h 67% 0.0 mm
08:09 4.8 °C -0.8 °C 1024.2 hPa SSE 5.8 km/h 9.7 km/h 67% 0.0 mm
08:14 4.7 °C -0.7 °C 1024.1 hPa SSE 5.8 km/h 8 km/h 67.8% 0.0 mm
08:19 4.6 °C -0.7 °C 1024.1 hPa SSE 5.1 km/h 8 km/h 68.5% 0.0 mm
08:24 4.4 °C -0.8 °C 1024.2 hPa SSE 5 km/h 8 km/h 69.2% 0.0 mm
08:29 4.3 °C -0.7 °C 1024.2 hPa SSE 4.7 km/h 8 km/h 70% 0.0 mm
08:34 4.2 °C -0.7 °C 1024.2 hPa SSE 4.7 km/h 5.8 km/h 70.5% 0.0 mm
08:39 4.1 °C -0.7 °C 1024.2 hPa Sur 3.4 km/h 6.4 km/h 71% 0.0 mm
08:44 4.1 °C -0.5 °C 1024.2 hPa SSO 3.2 km/h 9.3 km/h 71.8% 0.0 mm
08:49 4.3 °C -0.6 °C 1024.2 hPa SO 4.8 km/h 9.7 km/h 71% 0.0 mm
08:54 4.4 °C -0.6 °C 1024.2 hPa SSO 5 km/h 8.7 km/h 70.1% 0.0 mm
08:59 4.6 °C -0.6 °C 1024.2 hPa SSO 5.7 km/h 9.7 km/h 69.1% 0.0 mm
09:04 4.8 °C -0.6 °C 1024.2 hPa SSO 5.8 km/h 9.3 km/h 68.2% 0.0 mm
09:09 4.9 °C -0.5 °C 1024.2 hPa SSO 5.8 km/h 9.7 km/h 67.7% 0.0 mm
09:14 5.1 °C -0.5 °C 1024.2 hPa SO 5.8 km/h 9.7 km/h 67% 0.0 mm
09:19 5.2 °C -0.6 °C 1024.2 hPa SSO 5.8 km/h 11.1 km/h 66.1% 0.0 mm
09:24 5.3 °C -0.7 °C 1024.3 hPa SO 5.8 km/h 11.3 km/h 65.3% 0.0 mm
09:29 5.5 °C -0.6 °C 1024.3 hPa Sur 5.1 km/h 9.7 km/h 64.8% 0.0 mm
09:34 5.7 °C -0.7 °C 1024.3 hPa SSO 5 km/h 10 km/h 63.5% 0.0 mm
09:39 5.9 °C -0.6 °C 1024.3 hPa SSO 5 km/h 9.7 km/h 62.9% 0.0 mm
09:44 6.1 °C -0.6 °C 1024.3 hPa Sur 5 km/h 9.7 km/h 62.3% 0.0 mm
09:49 6.3 °C -0.6 °C 1024.3 hPa SSO 5.7 km/h 13 km/h 61.3% 0.0 mm
09:54 6.4 °C -0.7 °C 1024.3 hPa SSO 5.8 km/h 12.9 km/h 60.6% 0.0 mm
09:59 6.6 °C -0.6 °C 1024.3 hPa SSO 6.8 km/h 11.3 km/h 60% 0.0 mm
10:04 6.8 °C -0.7 °C 1024.3 hPa SO 6.9 km/h 13 km/h 59.1% 0.0 mm
10:09 6.9 °C -0.6 °C 1024.3 hPa SSO 6.5 km/h 15.6 km/h 58.8% 0.0 mm
10:14 7.2 °C -0.6 °C 1024.3 hPa SSO 6.5 km/h 16.1 km/h 58% 0.0 mm
10:19 7.3 °C -0.5 °C 1024.3 hPa SSO 7.4 km/h 11.9 km/h 57.4% 0.0 mm
10:24 7.7 °C -0.3 °C 1024.3 hPa SSO 7.6 km/h 11.3 km/h 57% 0.0 mm
10:29 8 °C -0.3 °C 1024.3 hPa Sur 6.6 km/h 13 km/h 56.2% 0.0 mm
10:34 8.3 °C -0.3 °C 1024.3 hPa SSO 6.5 km/h 13 km/h 54.8% 0.0 mm
10:39 8.4 °C -0.3 °C 1024.5 hPa SSO 7.5 km/h 13 km/h 54% 0.0 mm
10:44 8.7 °C -0.2 °C 1024.5 hPa SSO 7.6 km/h 12.9 km/h 54% 0.0 mm
10:49 8.8 °C -0.1 °C 1024.5 hPa SSO 7 km/h 11.3 km/h 53.6% 0.0 mm
10:54 9.2 °C 0 °C 1024.5 hPa Sur 6.9 km/h 11.3 km/h 52.7% 0.0 mm
10:59 9.6 °C 0.2 °C 1024.5 hPa Sur 6.5 km/h 11.3 km/h 51.8% 0.0 mm
11:04 10 °C 0.1 °C 1024.5 hPa SSO 6.5 km/h 13.7 km/h 50.2% 0.0 mm
11:09 10.4 °C 0 °C 1024.5 hPa SSO 6.9 km/h 14.5 km/h 48.6% 0.0 mm
11:14 10.7 °C -0.3 °C 1024.3 hPa SSO 6.9 km/h 13 km/h 46.6% 0.0 mm
11:19 11.1 °C -0.3 °C 1024.3 hPa SO 6.9 km/h 12.9 km/h 45.6% 0.0 mm
11:24 11.3 °C -0.3 °C 1024.4 hPa Sur 6.9 km/h 9.7 km/h 44.6% 0.0 mm
11:29 11.7 °C -0.7 °C 1024.4 hPa SSO 6 km/h 11.9 km/h 42.4% 0.0 mm
11:34 11.9 °C -1 °C 1024.4 hPa SSO 5.8 km/h 12.2 km/h 40.8% 0.0 mm
11:39 12.2 °C -1 °C 1024.4 hPa SSO 6.8 km/h 13 km/h 40.1% 0.0 mm
11:44 12.3 °C -1 °C 1024.2 hPa SSO 6.9 km/h 14.8 km/h 39.7% 0.0 mm
11:49 12.6 °C -1.5 °C 1024.2 hPa SO 7.5 km/h 16.7 km/h 37.6% 0.0 mm
11:54 12.7 °C -1.4 °C 1024.2 hPa SO 7.6 km/h 16.1 km/h 37.7% 0.0 mm
11:59 12.9 °C -1.7 °C 1023.9 hPa SO 7.6 km/h 14.8 km/h 36.4% 0.0 mm
12:04 13.2 °C -2 °C 1023.9 hPa OSO 7.6 km/h 14.8 km/h 35% 0.0 mm
12:09 13.4 °C -1.9 °C 1023.9 hPa SO 8.2 km/h 18.3 km/h 34.6% 0.0 mm
12:14 13.6 °C -2.1 °C 1023.7 hPa SO 8.4 km/h 20.9 km/h 33.8% 0.0 mm
12:19 13.7 °C -2.2 °C 1023.7 hPa SO 10.1 km/h 20.9 km/h 33.1% 0.0 mm
12:24 13.9 °C -2 °C 1023.7 hPa SSO 10.3 km/h 19.3 km/h 33.3% 0.0 mm
12:29 14.1 °C -2.3 °C 1023.4 hPa SO 9.6 km/h 19 km/h 32.2% 0.0 mm
12:34 14.1 °C -2.5 °C 1023.4 hPa SO 9.5 km/h 19.3 km/h 31.8% 0.0 mm
12:39 14.2 °C -2.3 °C 1023.4 hPa SSO 10.2 km/h 17.2 km/h 32% 0.0 mm
12:44 14.3 °C -2.5 °C 1023.1 hPa SO 10.3 km/h 17.7 km/h 31.3% 0.0 mm
12:49 14.6 °C -2.4 °C 1023.1 hPa SO 10 km/h 18.5 km/h 31% 0.0 mm
12:54 14.8 °C -2.5 °C 1023.1 hPa SO 10 km/h 19.3 km/h 30.4% 0.0 mm
12:59 14.8 °C -2.6 °C 1022.8 hPa SO 10.3 km/h 18.5 km/h 30% 0.0 mm
13:04 15.1 °C -2.6 °C 1022.8 hPa SO 10.3 km/h 20.9 km/h 29.6% 0.0 mm
13:09 15.2 °C -2.8 °C 1022.8 hPa OSO 11.7 km/h 20.9 km/h 28.8% 0.0 mm
13:14 15.3 °C -2.8 °C 1022.5 hPa OSO 11.9 km/h 20.9 km/h 28.8% 0.0 mm
13:19 15.5 °C -2.8 °C 1022.5 hPa OSO 10.6 km/h 19.3 km/h 28.3% 0.0 mm
13:24 15.7 °C -2.8 °C 1022.5 hPa OSO 10.3 km/h 20.4 km/h 28% 0.0 mm
13:29 15.8 °C -3 °C 1022.2 hPa OSO 11 km/h 24.5 km/h 27.3% 0.0 mm
13:34 15.9 °C -3.1 °C 1022.2 hPa OSO 11.1 km/h 24.5 km/h 27% 0.0 mm
13:39 16.1 °C -3.2 °C 1022.2 hPa SO 14.5 km/h 24.5 km/h 26.6% 0.0 mm
13:44 16.2 °C -3.3 °C 1021.9 hPa OSO 14.8 km/h 24.1 km/h 26.2% 0.0 mm
13:45 16.2 °C -3.3 °C 1021.9 hPa SO 14.5 km/h 24.1 km/h 26% 0.0 mm
13:54 16.3 °C -3.2 °C 1021.9 hPa OSO 14.8 km/h 25.7 km/h 26% 0.0 mm
13:59 16.6 °C -3 °C 1021.5 hPa OSO 13.8 km/h 25.9 km/h 26% 0.0 mm
14:04 16.7 °C -3.2 °C 1021.5 hPa OSO 13.7 km/h 28.2 km/h 25.6% 0.0 mm
14:09 16.7 °C -3 °C 1021.5 hPa Oeste 15.4 km/h 27.4 km/h 25.8% 0.0 mm
14:14 16.8 °C -3.2 °C 1021.2 hPa Oeste 15.6 km/h 27.8 km/h 25.3% 0.0 mm
14:19 16.9 °C -3.3 °C 1021.2 hPa Oeste 15.6 km/h 30.6 km/h 25% 0.0 mm
14:24 17.1 °C -3.3 °C 1021.2 hPa Oeste 15.6 km/h 35.9 km/h 24.8% 0.0 mm
14:25 17.2 °C -3 °C 1020.9 hPa OSO 15.4 km/h 35.4 km/h 25% 0.0 mm
14:44 17.4 °C -3.1 °C 1020.7 hPa Oeste 11.9 km/h 26.2 km/h 24.7% 0.0 mm
14:49 17.4 °C -3.1 °C 1020.7 hPa OSO 15.7 km/h 27.8 km/h 24.5% 0.0 mm
14:54 17.5 °C -3.1 °C 1020.7 hPa OSO 16.1 km/h 27.4 km/h 24.5% 0.0 mm
14:59 17.5 °C -2.5 °C 1020.5 hPa SO 13.5 km/h 22 km/h 25.5% 0.0 mm
15:04 17.6 °C -2.2 °C 1020.5 hPa SO 13 km/h 22.5 km/h 26% 0.0 mm
15:09 17.6 °C -2.2 °C 1020.5 hPa SSO 9.9 km/h 16.7 km/h 26% 0.0 mm
15:10 17.7 °C -2.1 °C 1020.4 hPa SSO 9.6 km/h 16.7 km/h 26% 0.0 mm
15:19 17.7 °C -2.6 °C 1020.4 hPa SO 10.2 km/h 20.9 km/h 25% 0.0 mm
15:24 17.8 °C -2.6 °C 1020.4 hPa OSO 10.3 km/h 20.9 km/h 24.8% 0.0 mm
15:29 18 °C -2.9 °C 1020.3 hPa Oeste 9.7 km/h 20.9 km/h 24% 0.0 mm
15:34 18.1 °C -3.2 °C 1020.3 hPa ONO 9.5 km/h 22 km/h 23.3% 0.0 mm
15:39 18.1 °C -3.3 °C 1020.3 hPa OSO 10.9 km/h 22.5 km/h 23.2% 0.0 mm
15:44 18.2 °C -3.3 °C 1020.3 hPa Oeste 11.1 km/h 24.1 km/h 23% 0.0 mm
15:49 18.2 °C -3.3 °C 1020.3 hPa OSO 11.8 km/h 24.1 km/h 23% 0.0 mm
15:54 18.3 °C -3.2 °C 1020.3 hPa OSO 11.9 km/h 20.4 km/h 23% 0.0 mm
15:59 18.4 °C -2.8 °C 1020.3 hPa SSO 9.9 km/h 20.9 km/h 23.5% 0.0 mm
16:04 18.5 °C -3 °C 1020.3 hPa SO 9.5 km/h 20.9 km/h 23% 0.0 mm
16:09 18.6 °C -3.1 °C 1020.4 hPa OSO 11.5 km/h 20.9 km/h 22.7% 0.0 mm
16:14 18.7 °C -3.3 °C 1020.4 hPa OSO 11.9 km/h 19.3 km/h 22.3% 0.0 mm
16:19 18.8 °C -3.2 °C 1020.4 hPa Oeste 9.8 km/h 16.7 km/h 22.4% 0.0 mm
16:24 18.9 °C -2.7 °C 1020.4 hPa SO 9.5 km/h 16.1 km/h 23% 0.0 mm
16:29 18.9 °C -3 °C 1020.4 hPa OSO 7.9 km/h 20.4 km/h 22.5% 0.0 mm
16:34 18.9 °C -3.8 °C 1020.4 hPa Oeste 7.6 km/h 22.2 km/h 21.3% 0.0 mm
16:39 18.9 °C -3.9 °C 1020.5 hPa Oeste 10.4 km/h 26.2 km/h 21.1% 0.0 mm
16:44 18.9 °C -3.9 °C 1020.5 hPa OSO 11.1 km/h 25.7 km/h 21% 0.0 mm
16:49 18.9 °C -3.8 °C 1020.5 hPa Oeste 12.1 km/h 24.5 km/h 21.3% 0.0 mm
16:54 18.8 °C -3.6 °C 1020.5 hPa Oeste 12.2 km/h 25.9 km/h 21.7% 0.0 mm
16:59 18.8 °C -3.6 °C 1020.5 hPa Oeste 15.3 km/h 25.7 km/h 21.6% 0.0 mm
17:04 18.8 °C -3.4 °C 1020.5 hPa Oeste 15.6 km/h 20.9 km/h 22% 0.0 mm
17:09 18.7 °C -3.5 °C 1020.5 hPa Oeste 12.5 km/h 20.9 km/h 22% 0.0 mm
17:14 18.7 °C -2.2 °C 1020.5 hPa NO 11.9 km/h 19.3 km/h 24.3% 0.0 mm
17:19 18.4 °C -0.9 °C 1020.5 hPa NNO 10.6 km/h 16.7 km/h 27.1% 0.0 mm
17:24 18.1 °C 0.3 °C 1020.6 hPa North 10.3 km/h 16.4 km/h 30.1% 0.0 mm
17:29 17.5 °C 1.5 °C 1020.6 hPa NNE 8.6 km/h 16.7 km/h 34.1% 0.0 mm
17:34 17 °C 2.1 °C 1020.6 hPa North 8.4 km/h 16.7 km/h 36.7% 0.0 mm
17:39 16.6 °C 2.6 °C 1020.8 hPa NNE 8.6 km/h 17.2 km/h 39% 0.0 mm
17:44 16.1 °C 2.7 °C 1020.8 hPa NNE 8.7 km/h 20.4 km/h 40.5% 0.0 mm
17:49 15.6 °C 2.7 °C 1020.8 hPa North 11.6 km/h 18.5 km/h 41.9% 0.0 mm
17:54 15.1 °C 2.5 °C 1021.0 hPa NNE 12.2 km/h 20.9 km/h 42.6% 0.0 mm
17:59 14.8 °C 2.3 °C 1021.0 hPa North 13.5 km/h 22.2 km/h 43% 0.0 mm
18:04 14.7 °C 2.3 °C 1021.0 hPa NNE 13.7 km/h 22.5 km/h 43.5% 0.0 mm
18:09 14.4 °C 2.3 °C 1021.1 hPa NNE 11.6 km/h 19.3 km/h 44% 0.0 mm
18:14 14.3 °C 2.4 °C 1021.1 hPa North 11.1 km/h 16.1 km/h 44.7% 0.0 mm
18:19 14.1 °C 2.6 °C 1021.1 hPa North 10.1 km/h 14.8 km/h 45.9% 0.0 mm
18:24 13.8 °C 2.7 °C 1021.2 hPa North 10 km/h 15.6 km/h 47.1% 0.0 mm
18:29 13.7 °C 2.8 °C 1021.2 hPa North 10 km/h 16.1 km/h 47.8% 0.0 mm
18:34 13.6 °C 2.9 °C 1021.2 hPa NNE 10 km/h 14.8 km/h 48.6% 0.0 mm
18:35 13.5 °C 3 °C 1021.2 hPa NNE 9.7 km/h 11.3 km/h 49% 0.0 mm
18:44 13.2 °C 3.2 °C 1021.4 hPa North 6.9 km/h 13 km/h 51% 0.0 mm
18:49 12.8 °C 3.3 °C 1021.4 hPa North 6.5 km/h 16.7 km/h 52.3% 0.0 mm
18:54 12.5 °C 3.3 °C 1021.5 hPa North 6.5 km/h 16.1 km/h 53.6% 0.0 mm
18:59 12.3 °C 3.3 °C 1021.5 hPa North 9.5 km/h 16.1 km/h 54.5% 0.0 mm
19:04 12.1 °C 3.3 °C 1021.5 hPa North 10 km/h 14.5 km/h 55% 0.0 mm
19:09 11.9 °C 3.1 °C 1021.6 hPa North 8.6 km/h 13 km/h 55.1% 0.0 mm
19:14 11.7 °C 3.2 °C 1021.6 hPa North 8.4 km/h 11.3 km/h 56% 0.0 mm
19:19 11.5 °C 3.1 °C 1021.6 hPa NNO 6.1 km/h 11.1 km/h 56% 0.0 mm
19:24 11.3 °C 2.9 °C 1021.7 hPa NNO 5.8 km/h 11.3 km/h 56% 0.0 mm
19:29 11.2 °C 2.7 °C 1021.7 hPa NNO 6.4 km/h 11.3 km/h 56% 0.0 mm
19:34 11.1 °C 2.7 °C 1021.7 hPa NNO 6.5 km/h 11.3 km/h 56.4% 0.0 mm
19:39 10.9 °C 2.8 °C 1021.8 hPa NO 5 km/h 8 km/h 57% 0.0 mm
19:44 10.9 °C 2.7 °C 1021.8 hPa NO 4.7 km/h 8 km/h 57% 0.0 mm
19:49 10.8 °C 2.6 °C 1021.8 hPa NO 4.7 km/h 8 km/h 57% 0.0 mm
19:54 10.8 °C 2.6 °C 1021.9 hPa NO 4.7 km/h 9.5 km/h 57% 0.0 mm
19:59 10.7 °C 2.7 °C 1021.9 hPa NO 4.9 km/h 9.7 km/h 57.6% 0.0 mm
20:04 10.7 °C 2.8 °C 1021.9 hPa NO 5 km/h 8 km/h 58% 0.0 mm
20:09 10.6 °C 2.7 °C 1021.9 hPa NO 4 km/h 8 km/h 58% 0.0 mm
20:14 10.6 °C 2.7 °C 1021.9 hPa NO 3.9 km/h 6.4 km/h 58% 0.0 mm
20:19 10.5 °C 2.7 °C 1021.9 hPa NO 3.3 km/h 6.4 km/h 58.6% 0.0 mm
20:24 10.4 °C 2.8 °C 1022.0 hPa ONO 3.2 km/h 7.4 km/h 59% 0.0 mm
20:29 10.4 °C 2.7 °C 1022.0 hPa Oeste 3.2 km/h 8 km/h 59% 0.0 mm
20:34 10.4 °C 2.7 °C 1022.0 hPa Oeste 3.2 km/h 5.6 km/h 59% 0.0 mm
20:39 10.3 °C 2.7 °C 1022.1 hPa Oeste 3 km/h 5.6 km/h 59% 0.0 mm
20:44 10.3 °C 2.6 °C 1022.1 hPa Oeste 2.9 km/h 3.7 km/h 59% 0.0 mm
20:49 10.3 °C 2.7 °C 1022.1 hPa Oeste 0.3 km/h 4.7 km/h 59.1% 0.0 mm
20:54 10.3 °C 2.9 °C 1022.1 hPa Calm   4.8 km/h 60% 0.0 mm
20:59 10.3 °C 2.8 °C 1022.1 hPa Calm   10 km/h 59.7% 0.0 mm
21:04 10.4 °C 2.9 °C 1022.1 hPa Calm   9.7 km/h 59.9% 0.0 mm
21:09 10.4 °C 2.7 °C 1022.1 hPa SSO 4.2 km/h 10 km/h 59% 0.0 mm
21:14 10.4 °C 2.7 °C 1022.1 hPa Sur 4.7 km/h 9.7 km/h 59% 0.0 mm
21:19 10.4 °C 2.8 °C 1022.1 hPa Sur 6.5 km/h 10 km/h 59% 0.0 mm
21:24 10.6 °C 2.9 °C 1022.1 hPa SSO 6.9 km/h 11.1 km/h 59% 0.0 mm
21:29 10.6 °C 2.9 °C 1022.1 hPa Sur 6.9 km/h 11.3 km/h 59% 0.0 mm
21:34 10.7 °C 3.1 °C 1022.1 hPa SSO 6.9 km/h 11.3 km/h 59.4% 0.0 mm
21:39 10.7 °C 3.2 °C 1022.2 hPa SSO 7.5 km/h 11.3 km/h 60% 0.0 mm
21:44 10.6 °C 3.1 °C 1022.2 hPa OSO 7.6 km/h 11.3 km/h 60% 0.0 mm
21:49 10.4 °C 3 °C 1022.2 hPa Oeste 5.3 km/h 9.5 km/h 60% 0.0 mm
21:54 10.2 °C 3 °C 1022.3 hPa SO 5 km/h 11.9 km/h 60.8% 0.0 mm
21:59 10.2 °C 2.8 °C 1022.3 hPa SSO 6.2 km/h 13.7 km/h 60.4% 0.0 mm
22:04 10.3 °C 2.9 °C 1022.3 hPa SO 6.5 km/h 14.5 km/h 60% 0.0 mm
22:09 10.3 °C 2.9 °C 1022.4 hPa SSO 7.4 km/h 13 km/h 60% 0.0 mm
22:14 10.3 °C 2.9 °C 1022.4 hPa SSO 7.6 km/h 12.9 km/h 59.8% 0.0 mm
22:19 10.3 °C 2.4 °C 1022.4 hPa SO 6.1 km/h 11.1 km/h 57.9% 0.0 mm
22:24 10.6 °C 2.2 °C 1022.5 hPa SSO 5.8 km/h 13 km/h 56.1% 0.0 mm
22:29 10.6 °C 2.4 °C 1022.5 hPa SSO 6.4 km/h 13 km/h 57% 0.0 mm
22:34 10.6 °C 2.4 °C 1022.5 hPa Sur 6.4 km/h 11.9 km/h 57% 0.0 mm
22:35 10.6 °C 2.4 °C 1022.5 hPa Sur 6.7 km/h 11.3 km/h 57% 0.0 mm
22:44 10.7 °C 2 °C 1022.3 hPa Sur 7.6 km/h 13 km/h 54.9% 0.0 mm
22:49 10.8 °C 1.5 °C 1022.3 hPa SSE 8.3 km/h 13.7 km/h 52.5% 0.0 mm
22:54 10.9 °C 1.5 °C 1022.4 hPa SSE 8.4 km/h 14.5 km/h 52.2% 0.0 mm
22:59 10.9 °C 1.2 °C 1022.4 hPa Sur 8.4 km/h 12.9 km/h 51.1% 0.0 mm
23:04 10.9 °C 1.1 °C 1022.4 hPa SSO 8.4 km/h 11.3 km/h 50.7% 0.0 mm
23:09 11 °C 0.2 °C 1022.5 hPa SO 7.7 km/h 18.5 km/h 47.4% 0.0 mm
23:14 11.2 °C -0.1 °C 1022.5 hPa SO 7.6 km/h 19.3 km/h 45.7% 0.0 mm
23:19 11.3 °C -0.6 °C 1022.5 hPa SSO 7.6 km/h 12.9 km/h 43.9% 0.0 mm
23:24 11.3 °C -0.4 °C 1022.5 hPa Sur 7.6 km/h 11.3 km/h 44.4% 0.0 mm
23:29 11.3 °C -0.9 °C 1022.5 hPa SO 7 km/h 16.1 km/h 42.8% 0.0 mm
23:34 11.4 °C -1.7 °C 1022.5 hPa OSO 6.9 km/h 22.5 km/h 40% 0.0 mm
23:39 11.9 °C -2.3 °C 1022.6 hPa Oeste 8.5 km/h 24.1 km/h 37.2% 0.0 mm
23:44 12.2 °C -2.2 °C 1022.6 hPa SO 8.7 km/h 16.7 km/h 36.6% 0.0 mm
23:49 12.2 °C -2.2 °C 1022.6 hPa Oeste 9.8 km/h 16.7 km/h 36.6% 0.0 mm
23:54 12.2 °C -2.7 °C 1022.8 hPa OSO 10 km/h 22.2 km/h 35.1% 0.0 mm
23:59 12.3 °C -2.7 °C 1022.8 hPa OSO 8.9 km/h 22.5 km/h 35% 0.0 mm
Murcia-Puente Tocinos, Espa?a
Compliments of Weather Underground - 3 mb

La estación de MeteoMurcia.com, publica sus datos en los siguientes proyectos:

Weather Underground PWS IMURCIAP2 Meteoclimatic www.awekas.at

W3Counter
Web Analytics